sensor_id;sensor_type;location;lat;lon;timestamp;P1;durP1;ratioP1;P2;durP2;ratioP2
17614;SDS011;8926;49.720;6.576;2022-08-25T00:01:14;1.07;;;1.00;;
17614;SDS011;8926;49.720;6.576;2022-08-25T00:03:45;0.90;;;0.90;;
17614;SDS011;8926;49.720;6.576;2022-08-25T00:06:11;1.20;;;1.10;;
17614;SDS011;8926;49.720;6.576;2022-08-25T00:08:38;0.90;;;0.90;;
17614;SDS011;8926;49.720;6.576;2022-08-25T00:11:05;1.00;;;1.00;;
17614;SDS011;8926;49.720;6.576;2022-08-25T00:13:31;1.13;;;1.13;;
17614;SDS011;8926;49.720;6.576;2022-08-25T00:15:57;1.17;;;1.17;;
17614;SDS011;8926;49.720;6.576;2022-08-25T00:18:22;0.77;;;0.77;;
17614;SDS011;8926;49.720;6.576;2022-08-25T00:20:48;0.83;;;0.83;;
17614;SDS011;8926;49.720;6.576;2022-08-25T00:23:13;0.90;;;0.90;;
17614;SDS011;8926;49.720;6.576;2022-08-25T00:25:38;1.10;;;1.10;;
17614;SDS011;8926;49.720;6.576;2022-08-25T00:28:04;1.00;;;0.90;;
17614;SDS011;8926;49.720;6.576;2022-08-25T00:30:29;1.20;;;1.20;;
17614;SDS011;8926;49.720;6.576;2022-08-25T00:32:55;1.30;;;1.20;;
17614;SDS011;8926;49.720;6.576;2022-08-25T00:35:20;1.10;;;1.10;;
17614;SDS011;8926;49.720;6.576;2022-08-25T00:37:46;0.70;;;0.70;;
17614;SDS011;8926;49.720;6.576;2022-08-25T00:40:12;1.10;;;1.10;;
17614;SDS011;8926;49.720;6.576;2022-08-25T00:42:37;0.97;;;0.97;;
17614;SDS011;8926;49.720;6.576;2022-08-25T00:45:05;0.77;;;0.77;;
17614;SDS011;8926;49.720;6.576;2022-08-25T00:47:31;1.10;;;1.10;;
17614;SDS011;8926;49.720;6.576;2022-08-25T00:49:57;1.30;;;1.30;;
17614;SDS011;8926;49.720;6.576;2022-08-25T00:52:29;1.40;;;1.30;;
17614;SDS011;8926;49.720;6.576;2022-08-25T00:54:59;1.33;;;1.33;;
17614;SDS011;8926;49.720;6.576;2022-08-25T00:57:39;1.13;;;1.03;;
17614;SDS011;8926;49.720;6.576;2022-08-25T01:00:13;0.93;;;0.93;;
17614;SDS011;8926;49.720;6.576;2022-08-25T01:02:43;1.23;;;1.23;;
17614;SDS011;8926;49.720;6.576;2022-08-25T01:05:08;1.10;;;1.10;;
17614;SDS011;8926;49.720;6.576;2022-08-25T01:07:34;1.13;;;1.03;;
17614;SDS011;8926;49.720;6.576;2022-08-25T01:10:00;0.80;;;0.80;;
17614;SDS011;8926;49.720;6.576;2022-08-25T01:12:27;1.33;;;1.30;;
17614;SDS011;8926;49.720;6.576;2022-08-25T01:14:52;1.07;;;1.07;;
17614;SDS011;8926;49.720;6.576;2022-08-25T01:17:18;1.10;;;1.10;;
17614;SDS011;8926;49.720;6.576;2022-08-25T01:19:45;1.00;;;1.00;;
17614;SDS011;8926;49.720;6.576;2022-08-25T01:22:11;2.47;;;1.30;;
17614;SDS011;8926;49.720;6.576;2022-08-25T01:24:41;1.10;;;1.10;;
17614;SDS011;8926;49.720;6.576;2022-08-25T01:27:14;1.10;;;1.10;;
17614;SDS011;8926;49.720;6.576;2022-08-25T01:29:40;1.33;;;1.33;;
17614;SDS011;8926;49.720;6.576;2022-08-25T01:32:06;1.10;;;1.10;;
17614;SDS011;8926;49.720;6.576;2022-08-25T01:34:35;1.40;;;1.30;;
17614;SDS011;8926;49.720;6.576;2022-08-25T01:37:04;1.20;;;1.20;;
17614;SDS011;8926;49.720;6.576;2022-08-25T01:39:30;1.20;;;1.20;;
17614;SDS011;8926;49.720;6.576;2022-08-25T01:44:38;1.40;;;1.40;;
17614;SDS011;8926;49.720;6.576;2022-08-25T01:47:05;1.10;;;1.10;;
17614;SDS011;8926;49.720;6.576;2022-08-25T01:49:32;1.00;;;1.00;;
17614;SDS011;8926;49.720;6.576;2022-08-25T01:52:18;1.00;;;1.00;;
17614;SDS011;8926;49.720;6.576;2022-08-25T01:54:48;1.40;;;1.30;;
17614;SDS011;8926;49.720;6.576;2022-08-25T01:57:13;1.37;;;1.27;;
17614;SDS011;8926;49.720;6.576;2022-08-25T01:59:39;1.13;;;1.13;;
17614;SDS011;8926;49.720;6.576;2022-08-25T02:02:05;1.10;;;1.10;;
17614;SDS011;8926;49.720;6.576;2022-08-25T02:04:31;1.00;;;1.00;;
17614;SDS011;8926;49.720;6.576;2022-08-25T02:06:57;1.20;;;1.20;;
17614;SDS011;8926;49.720;6.576;2022-08-25T02:09:24;1.27;;;1.17;;
17614;SDS011;8926;49.720;6.576;2022-08-25T02:11:49;1.63;;;1.40;;
17614;SDS011;8926;49.720;6.576;2022-08-25T02:14:15;1.20;;;1.20;;
17614;SDS011;8926;49.720;6.576;2022-08-25T02:16:44;1.03;;;1.03;;
17614;SDS011;8926;49.720;6.576;2022-08-25T02:19:13;1.67;;;1.57;;
17614;SDS011;8926;49.720;6.576;2022-08-25T02:21:40;1.30;;;1.30;;
17614;SDS011;8926;49.720;6.576;2022-08-25T02:24:06;1.30;;;1.30;;
17614;SDS011;8926;49.720;6.576;2022-08-25T02:26:33;1.40;;;1.40;;
17614;SDS011;8926;49.720;6.576;2022-08-25T02:29:00;1.40;;;1.30;;
17614;SDS011;8926;49.720;6.576;2022-08-25T02:31:26;1.47;;;1.37;;
17614;SDS011;8926;49.720;6.576;2022-08-25T02:33:52;1.43;;;1.40;;
17614;SDS011;8926;49.720;6.576;2022-08-25T02:36:19;1.67;;;1.57;;
17614;SDS011;8926;49.720;6.576;2022-08-25T02:38:45;1.20;;;1.20;;
17614;SDS011;8926;49.720;6.576;2022-08-25T02:41:12;2.00;;;1.40;;
17614;SDS011;8926;49.720;6.576;2022-08-25T02:43:43;1.57;;;1.50;;
17614;SDS011;8926;49.720;6.576;2022-08-25T02:46:10;1.80;;;1.70;;
17614;SDS011;8926;49.720;6.576;2022-08-25T02:48:36;1.40;;;1.30;;
17614;SDS011;8926;49.720;6.576;2022-08-25T02:51:03;1.30;;;1.30;;
17614;SDS011;8926;49.720;6.576;2022-08-25T02:53:31;1.77;;;1.67;;
17614;SDS011;8926;49.720;6.576;2022-08-25T02:55:57;1.50;;;1.50;;
17614;SDS011;8926;49.720;6.576;2022-08-25T02:58:22;1.67;;;1.57;;
17614;SDS011;8926;49.720;6.576;2022-08-25T03:00:48;1.80;;;1.70;;
17614;SDS011;8926;49.720;6.576;2022-08-25T03:03:13;1.60;;;1.50;;
17614;SDS011;8926;49.720;6.576;2022-08-25T03:05:39;1.60;;;1.50;;
17614;SDS011;8926;49.720;6.576;2022-08-25T03:08:05;1.37;;;1.37;;
17614;SDS011;8926;49.720;6.576;2022-08-25T03:10:32;1.13;;;1.13;;
17614;SDS011;8926;49.720;6.576;2022-08-25T03:12:57;1.63;;;1.53;;
17614;SDS011;8926;49.720;6.576;2022-08-25T03:15:22;1.40;;;1.40;;
17614;SDS011;8926;49.720;6.576;2022-08-25T03:17:49;1.47;;;1.47;;
17614;SDS011;8926;49.720;6.576;2022-08-25T03:20:15;1.30;;;1.30;;
17614;SDS011;8926;49.720;6.576;2022-08-25T03:22:40;1.40;;;1.40;;
17614;SDS011;8926;49.720;6.576;2022-08-25T03:25:06;1.67;;;1.57;;
17614;SDS011;8926;49.720;6.576;2022-08-25T03:27:51;1.50;;;1.40;;
17614;SDS011;8926;49.720;6.576;2022-08-25T03:30:17;1.27;;;1.23;;
17614;SDS011;8926;49.720;6.576;2022-08-25T03:32:42;1.30;;;1.30;;
17614;SDS011;8926;49.720;6.576;2022-08-25T03:35:08;1.70;;;1.60;;
17614;SDS011;8926;49.720;6.576;2022-08-25T03:37:34;1.20;;;1.20;;
17614;SDS011;8926;49.720;6.576;2022-08-25T03:40:02;1.43;;;1.40;;
17614;SDS011;8926;49.720;6.576;2022-08-25T03:42:29;1.47;;;1.47;;
17614;SDS011;8926;49.720;6.576;2022-08-25T03:44:54;1.20;;;1.20;;
17614;SDS011;8926;49.720;6.576;2022-08-25T03:47:19;1.50;;;1.40;;
17614;SDS011;8926;49.720;6.576;2022-08-25T03:49:45;1.10;;;1.10;;
17614;SDS011;8926;49.720;6.576;2022-08-25T03:52:10;1.70;;;1.50;;
17614;SDS011;8926;49.720;6.576;2022-08-25T03:54:36;1.27;;;1.20;;
17614;SDS011;8926;49.720;6.576;2022-08-25T03:57:01;1.93;;;1.83;;
17614;SDS011;8926;49.720;6.576;2022-08-25T03:59:26;1.53;;;1.43;;
17614;SDS011;8926;49.720;6.576;2022-08-25T04:01:52;1.70;;;1.60;;
17614;SDS011;8926;49.720;6.576;2022-08-25T04:04:18;1.53;;;1.43;;
17614;SDS011;8926;49.720;6.576;2022-08-25T04:06:44;1.40;;;1.40;;
17614;SDS011;8926;49.720;6.576;2022-08-25T04:09:09;1.73;;;1.63;;
17614;SDS011;8926;49.720;6.576;2022-08-25T04:11:35;1.80;;;1.70;;
17614;SDS011;8926;49.720;6.576;2022-08-25T04:14:01;1.53;;;1.50;;
17614;SDS011;8926;49.720;6.576;2022-08-25T04:16:28;1.83;;;1.73;;
17614;SDS011;8926;49.720;6.576;2022-08-25T04:18:55;1.93;;;1.83;;
17614;SDS011;8926;49.720;6.576;2022-08-25T04:21:23;1.83;;;1.73;;
17614;SDS011;8926;49.720;6.576;2022-08-25T04:23:50;1.80;;;1.70;;
17614;SDS011;8926;49.720;6.576;2022-08-25T04:28:56;2.10;;;1.87;;
17614;SDS011;8926;49.720;6.576;2022-08-25T04:31:23;1.83;;;1.73;;
17614;SDS011;8926;49.720;6.576;2022-08-25T04:33:49;1.87;;;1.77;;
17614;SDS011;8926;49.720;6.576;2022-08-25T04:36:15;1.60;;;1.50;;
17614;SDS011;8926;49.720;6.576;2022-08-25T04:38:42;1.50;;;1.50;;
17614;SDS011;8926;49.720;6.576;2022-08-25T04:41:09;1.70;;;1.60;;
17614;SDS011;8926;49.720;6.576;2022-08-25T04:43:36;1.80;;;1.70;;
17614;SDS011;8926;49.720;6.576;2022-08-25T04:46:04;1.87;;;1.77;;
17614;SDS011;8926;49.720;6.576;2022-08-25T04:48:31;1.80;;;1.70;;
17614;SDS011;8926;49.720;6.576;2022-08-25T04:50:56;1.47;;;1.40;;
17614;SDS011;8926;49.720;6.576;2022-08-25T04:53:22;1.80;;;1.70;;
17614;SDS011;8926;49.720;6.576;2022-08-25T04:55:47;1.70;;;1.60;;
17614;SDS011;8926;49.720;6.576;2022-08-25T04:58:13;1.90;;;1.80;;
17614;SDS011;8926;49.720;6.576;2022-08-25T05:00:39;1.80;;;1.70;;
17614;SDS011;8926;49.720;6.576;2022-08-25T05:03:06;1.60;;;1.50;;
17614;SDS011;8926;49.720;6.576;2022-08-25T05:05:34;1.60;;;1.50;;
17614;SDS011;8926;49.720;6.576;2022-08-25T05:08:01;1.90;;;1.80;;
17614;SDS011;8926;49.720;6.576;2022-08-25T05:10:27;2.07;;;1.87;;
17614;SDS011;8926;49.720;6.576;2022-08-25T05:12:52;1.80;;;1.70;;
17614;SDS011;8926;49.720;6.576;2022-08-25T05:15:17;1.63;;;1.50;;
17614;SDS011;8926;49.720;6.576;2022-08-25T05:18:01;1.63;;;1.53;;
17614;SDS011;8926;49.720;6.576;2022-08-25T05:20:26;1.53;;;1.53;;
17614;SDS011;8926;49.720;6.576;2022-08-25T05:22:52;1.67;;;1.57;;
17614;SDS011;8926;49.720;6.576;2022-08-25T05:25:17;2.03;;;1.70;;
17614;SDS011;8926;49.720;6.576;2022-08-25T05:27:43;1.70;;;1.60;;
17614;SDS011;8926;49.720;6.576;2022-08-25T05:30:09;1.73;;;1.70;;
17614;SDS011;8926;49.720;6.576;2022-08-25T05:32:35;1.90;;;1.80;;
17614;SDS011;8926;49.720;6.576;2022-08-25T05:35:00;1.97;;;1.87;;
17614;SDS011;8926;49.720;6.576;2022-08-25T05:37:26;1.73;;;1.63;;
17614;SDS011;8926;49.720;6.576;2022-08-25T05:39:51;1.80;;;1.70;;
17614;SDS011;8926;49.720;6.576;2022-08-25T05:42:16;2.07;;;1.97;;
17614;SDS011;8926;49.720;6.576;2022-08-25T05:44:42;1.93;;;1.70;;
17614;SDS011;8926;49.720;6.576;2022-08-25T05:47:07;1.60;;;1.60;;
17614;SDS011;8926;49.720;6.576;2022-08-25T05:49:32;1.60;;;1.50;;
17614;SDS011;8926;49.720;6.576;2022-08-25T05:51:57;1.70;;;1.60;;
17614;SDS011;8926;49.720;6.576;2022-08-25T05:54:23;1.57;;;1.47;;
17614;SDS011;8926;49.720;6.576;2022-08-25T05:56:49;1.90;;;1.80;;
17614;SDS011;8926;49.720;6.576;2022-08-25T05:59:15;1.67;;;1.57;;
17614;SDS011;8926;49.720;6.576;2022-08-25T06:01:40;1.83;;;1.53;;
17614;SDS011;8926;49.720;6.576;2022-08-25T06:04:24;1.43;;;1.43;;
17614;SDS011;8926;49.720;6.576;2022-08-25T06:06:49;2.03;;;1.80;;
17614;SDS011;8926;49.720;6.576;2022-08-25T06:09:17;1.70;;;1.60;;
17614;SDS011;8926;49.720;6.576;2022-08-25T06:11:43;1.50;;;1.40;;
17614;SDS011;8926;49.720;6.576;2022-08-25T06:14:09;4.20;;;1.80;;
17614;SDS011;8926;49.720;6.576;2022-08-25T06:16:34;2.20;;;2.00;;
17614;SDS011;8926;49.720;6.576;2022-08-25T06:19:00;1.87;;;1.77;;
17614;SDS011;8926;49.720;6.576;2022-08-25T06:21:25;1.50;;;1.40;;
17614;SDS011;8926;49.720;6.576;2022-08-25T06:23:51;2.00;;;1.90;;
17614;SDS011;8926;49.720;6.576;2022-08-25T06:26:16;2.07;;;1.97;;
17614;SDS011;8926;49.720;6.576;2022-08-25T06:28:41;2.33;;;2.13;;
17614;SDS011;8926;49.720;6.576;2022-08-25T06:31:07;1.80;;;1.70;;
17614;SDS011;8926;49.720;6.576;2022-08-25T06:33:32;2.20;;;2.00;;
17614;SDS011;8926;49.720;6.576;2022-08-25T06:35:58;1.60;;;1.50;;
17614;SDS011;8926;49.720;6.576;2022-08-25T06:38:23;1.77;;;1.67;;
17614;SDS011;8926;49.720;6.576;2022-08-25T06:40:49;2.20;;;1.77;;
17614;SDS011;8926;49.720;6.576;2022-08-25T06:43:19;2.63;;;2.10;;
17614;SDS011;8926;49.720;6.576;2022-08-25T06:45:45;1.80;;;1.70;;
17614;SDS011;8926;49.720;6.576;2022-08-25T06:48:10;2.00;;;1.90;;
17614;SDS011;8926;49.720;6.576;2022-08-25T06:50:39;2.30;;;1.63;;
17614;SDS011;8926;49.720;6.576;2022-08-25T06:53:05;2.00;;;1.90;;
17614;SDS011;8926;49.720;6.576;2022-08-25T06:55:31;2.20;;;2.07;;
17614;SDS011;8926;49.720;6.576;2022-08-25T06:57:59;2.33;;;1.80;;
17614;SDS011;8926;49.720;6.576;2022-08-25T07:00:24;2.30;;;2.10;;
17614;SDS011;8926;49.720;6.576;2022-08-25T07:02:49;1.83;;;1.73;;
17614;SDS011;8926;49.720;6.576;2022-08-25T07:05:15;2.20;;;2.10;;
17614;SDS011;8926;49.720;6.576;2022-08-25T07:07:40;2.13;;;2.03;;
17614;SDS011;8926;49.720;6.576;2022-08-25T07:10:08;2.37;;;2.00;;
17614;SDS011;8926;49.720;6.576;2022-08-25T07:12:34;2.13;;;1.93;;
17614;SDS011;8926;49.720;6.576;2022-08-25T07:14:59;1.80;;;1.70;;
17614;SDS011;8926;49.720;6.576;2022-08-25T07:17:24;2.00;;;1.90;;
17614;SDS011;8926;49.720;6.576;2022-08-25T07:19:51;1.90;;;1.80;;
17614;SDS011;8926;49.720;6.576;2022-08-25T07:22:16;2.07;;;1.77;;
17614;SDS011;8926;49.720;6.576;2022-08-25T07:24:42;2.60;;;1.87;;
17614;SDS011;8926;49.720;6.576;2022-08-25T07:27:07;2.33;;;2.13;;
17614;SDS011;8926;49.720;6.576;2022-08-25T07:29:33;2.10;;;2.00;;
17614;SDS011;8926;49.720;6.576;2022-08-25T07:32:02;1.80;;;1.70;;
17614;SDS011;8926;49.720;6.576;2022-08-25T07:34:29;2.50;;;2.17;;
17614;SDS011;8926;49.720;6.576;2022-08-25T07:37:13;2.63;;;2.10;;
17614;SDS011;8926;49.720;6.576;2022-08-25T07:39:38;2.23;;;2.07;;
17614;SDS011;8926;49.720;6.576;2022-08-25T07:42:04;2.43;;;2.10;;
17614;SDS011;8926;49.720;6.576;2022-08-25T07:44:29;2.93;;;2.07;;
17614;SDS011;8926;49.720;6.576;2022-08-25T07:46:55;1.87;;;1.77;;
17614;SDS011;8926;49.720;6.576;2022-08-25T07:49:23;1.97;;;1.83;;
17614;SDS011;8926;49.720;6.576;2022-08-25T07:51:53;2.00;;;1.90;;
17614;SDS011;8926;49.720;6.576;2022-08-25T07:54:18;2.00;;;1.90;;
17614;SDS011;8926;49.720;6.576;2022-08-25T07:56:44;2.00;;;1.90;;
17614;SDS011;8926;49.720;6.576;2022-08-25T07:59:09;2.00;;;1.90;;
17614;SDS011;8926;49.720;6.576;2022-08-25T08:01:35;1.87;;;1.70;;
17614;SDS011;8926;49.720;6.576;2022-08-25T08:04:01;2.30;;;1.70;;
17614;SDS011;8926;49.720;6.576;2022-08-25T08:06:27;3.13;;;1.97;;
17614;SDS011;8926;49.720;6.576;2022-08-25T08:08:53;2.60;;;2.37;;
17614;SDS011;8926;49.720;6.576;2022-08-25T08:13:50;2.20;;;1.90;;
17614;SDS011;8926;49.720;6.576;2022-08-25T08:16:17;2.20;;;2.00;;
17614;SDS011;8926;49.720;6.576;2022-08-25T08:18:44;2.30;;;2.10;;
17614;SDS011;8926;49.720;6.576;2022-08-25T08:21:11;2.13;;;2.00;;
17614;SDS011;8926;49.720;6.576;2022-08-25T08:23:40;2.57;;;2.07;;
17614;SDS011;8926;49.720;6.576;2022-08-25T08:26:05;1.93;;;1.80;;
17614;SDS011;8926;49.720;6.576;2022-08-25T08:28:31;2.00;;;1.90;;
17614;SDS011;8926;49.720;6.576;2022-08-25T08:30:56;2.20;;;1.70;;
17614;SDS011;8926;49.720;6.576;2022-08-25T08:33:22;3.07;;;1.80;;
17614;SDS011;8926;49.720;6.576;2022-08-25T08:35:53;1.67;;;1.57;;
17614;SDS011;8926;49.720;6.576;2022-08-25T08:38:22;2.43;;;1.53;;
17614;SDS011;8926;49.720;6.576;2022-08-25T08:40:58;1.90;;;1.80;;
17614;SDS011;8926;49.720;6.576;2022-08-25T08:43:48;1.93;;;1.60;;
17614;SDS011;8926;49.720;6.576;2022-08-25T08:46:21;3.43;;;1.83;;
17614;SDS011;8926;49.720;6.576;2022-08-25T08:48:52;1.80;;;1.70;;
17614;SDS011;8926;49.720;6.576;2022-08-25T08:51:39;2.40;;;1.60;;
17614;SDS011;8926;49.720;6.576;2022-08-25T08:54:13;2.37;;;2.00;;
17614;SDS011;8926;49.720;6.576;2022-08-25T08:56:44;1.97;;;1.87;;
17614;SDS011;8926;49.720;6.576;2022-08-25T08:59:15;1.93;;;1.70;;
17614;SDS011;8926;49.720;6.576;2022-08-25T09:01:45;1.80;;;1.70;;
17614;SDS011;8926;49.720;6.576;2022-08-25T09:04:14;2.20;;;2.00;;
17614;SDS011;8926;49.720;6.576;2022-08-25T09:06:45;2.07;;;1.90;;
17614;SDS011;8926;49.720;6.576;2022-08-25T09:09:13;4.10;;;1.70;;
17614;SDS011;8926;49.720;6.576;2022-08-25T09:22:42;2.27;;;2.07;;
17614;SDS011;8926;49.720;6.576;2022-08-25T09:25:31;2.13;;;2.00;;
17614;SDS011;8926;49.720;6.576;2022-08-25T09:30:44;1.73;;;1.63;;
17614;SDS011;8926;49.720;6.576;2022-08-25T09:33:18;1.77;;;1.67;;
17614;SDS011;8926;49.720;6.576;2022-08-25T09:35:46;1.53;;;1.47;;
17614;SDS011;8926;49.720;6.576;2022-08-25T09:38:13;1.93;;;1.50;;
17614;SDS011;8926;49.720;6.576;2022-08-25T09:40:40;2.17;;;2.07;;
17614;SDS011;8926;49.720;6.576;2022-08-25T09:51:25;1.87;;;1.77;;
17614;SDS011;8926;49.720;6.576;2022-08-25T09:56:28;1.80;;;1.70;;
17614;SDS011;8926;49.720;6.576;2022-08-25T09:58:56;1.90;;;1.80;;
17614;SDS011;8926;49.720;6.576;2022-08-25T10:01:54;2.27;;;2.17;;
17614;SDS011;8926;49.720;6.576;2022-08-25T10:07:01;2.53;;;1.83;;
17614;SDS011;8926;49.720;6.576;2022-08-25T10:09:39;1.80;;;1.70;;
17614;SDS011;8926;49.720;6.576;2022-08-25T10:12:16;1.60;;;1.60;;
17614;SDS011;8926;49.720;6.576;2022-08-25T10:14:50;1.90;;;1.80;;
17614;SDS011;8926;49.720;6.576;2022-08-25T10:17:18;1.80;;;1.70;;
17614;SDS011;8926;49.720;6.576;2022-08-25T10:19:55;2.00;;;1.80;;
17614;SDS011;8926;49.720;6.576;2022-08-25T10:22:41;1.93;;;1.83;;
17614;SDS011;8926;49.720;6.576;2022-08-25T10:25:08;1.63;;;1.60;;
17614;SDS011;8926;49.720;6.576;2022-08-25T10:30:35;1.90;;;1.80;;
17614;SDS011;8926;49.720;6.576;2022-08-25T10:36:20;2.60;;;2.40;;
17614;SDS011;8926;49.720;6.576;2022-08-25T10:39:13;1.90;;;1.80;;
17614;SDS011;8926;49.720;6.576;2022-08-25T10:42:01;1.70;;;1.60;;
17614;SDS011;8926;49.720;6.576;2022-08-25T10:44:42;2.10;;;2.00;;
17614;SDS011;8926;49.720;6.576;2022-08-25T10:47:59;1.80;;;1.70;;
17614;SDS011;8926;49.720;6.576;2022-08-25T10:53:28;3.07;;;2.30;;
17614;SDS011;8926;49.720;6.576;2022-08-25T10:56:37;2.10;;;2.00;;
17614;SDS011;8926;49.720;6.576;2022-08-25T10:59:22;1.47;;;1.47;;
17614;SDS011;8926;49.720;6.576;2022-08-25T11:04:37;2.43;;;2.23;;
17614;SDS011;8926;49.720;6.576;2022-08-25T11:07:36;1.80;;;1.70;;
17614;SDS011;8926;49.720;6.576;2022-08-25T11:10:05;2.07;;;1.87;;
17614;SDS011;8926;49.720;6.576;2022-08-25T11:12:38;1.40;;;1.40;;
17614;SDS011;8926;49.720;6.576;2022-08-25T11:17:57;3.53;;;1.80;;
17614;SDS011;8926;49.720;6.576;2022-08-25T11:20:27;1.80;;;1.70;;
17614;SDS011;8926;49.720;6.576;2022-08-25T11:25:42;1.70;;;1.60;;
17614;SDS011;8926;49.720;6.576;2022-08-25T11:31:00;1.70;;;1.60;;
17614;SDS011;8926;49.720;6.576;2022-08-25T11:33:28;1.80;;;1.70;;
17614;SDS011;8926;49.720;6.576;2022-08-25T11:38:51;1.30;;;1.30;;
17614;SDS011;8926;49.720;6.576;2022-08-25T11:47:04;1.63;;;1.53;;
17614;SDS011;8926;49.720;6.576;2022-08-25T11:55:19;1.00;;;1.00;;
17614;SDS011;8926;49.720;6.576;2022-08-25T11:57:46;1.40;;;1.30;;
17614;SDS011;8926;49.720;6.576;2022-08-25T12:02:57;1.23;;;1.20;;
17614;SDS011;8926;49.720;6.576;2022-08-25T12:07:57;1.40;;;1.33;;
17614;SDS011;8926;49.720;6.576;2022-08-25T12:13:26;1.03;;;1.03;;
17614;SDS011;8926;49.720;6.576;2022-08-25T12:27:21;1.87;;;1.70;;
17614;SDS011;8926;49.720;6.576;2022-08-25T12:30:20;1.93;;;1.83;;
17614;SDS011;8926;49.720;6.576;2022-08-25T12:36:08;1.40;;;1.30;;
17614;SDS011;8926;49.720;6.576;2022-08-25T12:38:45;1.00;;;1.00;;
17614;SDS011;8926;49.720;6.576;2022-08-25T12:41:15;1.00;;;1.00;;
17614;SDS011;8926;49.720;6.576;2022-08-25T12:43:47;1.10;;;1.10;;
17614;SDS011;8926;49.720;6.576;2022-08-25T12:48:59;1.13;;;1.13;;
17614;SDS011;8926;49.720;6.576;2022-08-25T12:54:19;1.37;;;1.30;;
17614;SDS011;8926;49.720;6.576;2022-08-25T12:56:50;1.00;;;1.00;;
17614;SDS011;8926;49.720;6.576;2022-08-25T13:11:13;1.10;;;1.10;;
17614;SDS011;8926;49.720;6.576;2022-08-25T13:13:50;1.83;;;1.70;;
17614;SDS011;8926;49.720;6.576;2022-08-25T13:16:21;1.30;;;1.30;;
17614;SDS011;8926;49.720;6.576;2022-08-25T13:18:48;1.57;;;1.47;;
17614;SDS011;8926;49.720;6.576;2022-08-25T13:21:19;1.23;;;1.23;;
17614;SDS011;8926;49.720;6.576;2022-08-25T13:23:49;1.20;;;1.20;;
17614;SDS011;8926;49.720;6.576;2022-08-25T13:26:21;1.10;;;1.10;;
17614;SDS011;8926;49.720;6.576;2022-08-25T13:28:57;0.97;;;0.90;;
17614;SDS011;8926;49.720;6.576;2022-08-25T13:31:24;1.10;;;1.10;;
17614;SDS011;8926;49.720;6.576;2022-08-25T13:33:57;1.57;;;1.47;;
17614;SDS011;8926;49.720;6.576;2022-08-25T13:36:26;1.30;;;1.20;;
17614;SDS011;8926;49.720;6.576;2022-08-25T13:39:16;2.30;;;1.60;;
17614;SDS011;8926;49.720;6.576;2022-08-25T13:41:47;1.70;;;1.60;;
17614;SDS011;8926;49.720;6.576;2022-08-25T13:44:18;1.80;;;1.70;;
17614;SDS011;8926;49.720;6.576;2022-08-25T13:46:46;1.30;;;1.30;;
17614;SDS011;8926;49.720;6.576;2022-08-25T13:49:12;0.90;;;0.90;;
17614;SDS011;8926;49.720;6.576;2022-08-25T13:51:50;1.30;;;1.30;;
17614;SDS011;8926;49.720;6.576;2022-08-25T13:55:00;1.50;;;1.40;;
17614;SDS011;8926;49.720;6.576;2022-08-25T13:57:12;1.00;;;1.00;;
17614;SDS011;8926;49.720;6.576;2022-08-25T13:59:41;0.90;;;0.90;;
17614;SDS011;8926;49.720;6.576;2022-08-25T14:02:09;0.80;;;0.80;;
17614;SDS011;8926;49.720;6.576;2022-08-25T14:07:05;1.87;;;1.77;;
17614;SDS011;8926;49.720;6.576;2022-08-25T14:09:57;1.60;;;1.50;;
17614;SDS011;8926;49.720;6.576;2022-08-25T14:12:45;1.17;;;1.17;;
17614;SDS011;8926;49.720;6.576;2022-08-25T14:17:46;0.90;;;0.90;;
17614;SDS011;8926;49.720;6.576;2022-08-25T14:20:24;1.03;;;1.03;;
17614;SDS011;8926;49.720;6.576;2022-08-25T14:22:54;1.03;;;1.03;;
17614;SDS011;8926;49.720;6.576;2022-08-25T14:25:21;1.10;;;1.10;;
17614;SDS011;8926;49.720;6.576;2022-08-25T14:27:58;0.97;;;0.97;;
17614;SDS011;8926;49.720;6.576;2022-08-25T14:30:26;0.87;;;0.87;;
17614;SDS011;8926;49.720;6.576;2022-08-25T14:32:52;1.33;;;1.33;;
17614;SDS011;8926;49.720;6.576;2022-08-25T14:35:18;1.20;;;1.20;;
17614;SDS011;8926;49.720;6.576;2022-08-25T14:37:44;1.00;;;1.00;;
17614;SDS011;8926;49.720;6.576;2022-08-25T14:40:10;1.30;;;1.30;;
17614;SDS011;8926;49.720;6.576;2022-08-25T14:42:43;1.07;;;1.07;;
17614;SDS011;8926;49.720;6.576;2022-08-25T14:45:10;1.30;;;1.30;;
17614;SDS011;8926;49.720;6.576;2022-08-25T14:47:35;1.47;;;1.47;;
17614;SDS011;8926;49.720;6.576;2022-08-25T14:50:00;1.10;;;1.10;;
17614;SDS011;8926;49.720;6.576;2022-08-25T14:52:27;1.20;;;1.20;;
17614;SDS011;8926;49.720;6.576;2022-08-25T14:54:54;1.00;;;1.00;;
17614;SDS011;8926;49.720;6.576;2022-08-25T14:57:21;0.90;;;0.90;;
17614;SDS011;8926;49.720;6.576;2022-08-25T14:59:47;1.50;;;1.50;;
17614;SDS011;8926;49.720;6.576;2022-08-25T15:02:12;1.30;;;1.30;;
17614;SDS011;8926;49.720;6.576;2022-08-25T15:04:42;1.43;;;1.30;;
17614;SDS011;8926;49.720;6.576;2022-08-25T15:07:12;1.30;;;1.30;;
17614;SDS011;8926;49.720;6.576;2022-08-25T15:09:56;1.10;;;1.10;;
17614;SDS011;8926;49.720;6.576;2022-08-25T15:12:22;1.00;;;1.00;;
17614;SDS011;8926;49.720;6.576;2022-08-25T15:14:47;1.77;;;1.67;;
17614;SDS011;8926;49.720;6.576;2022-08-25T15:17:13;1.60;;;1.50;;
17614;SDS011;8926;49.720;6.576;2022-08-25T15:19:39;1.20;;;1.20;;
17614;SDS011;8926;49.720;6.576;2022-08-25T15:22:04;1.70;;;1.60;;
17614;SDS011;8926;49.720;6.576;2022-08-25T15:24:30;1.10;;;1.10;;
17614;SDS011;8926;49.720;6.576;2022-08-25T15:26:57;1.43;;;1.33;;
17614;SDS011;8926;49.720;6.576;2022-08-25T15:29:24;1.33;;;1.30;;
17614;SDS011;8926;49.720;6.576;2022-08-25T15:31:51;1.57;;;1.47;;
17614;SDS011;8926;49.720;6.576;2022-08-25T15:34:16;1.33;;;1.10;;
17614;SDS011;8926;49.720;6.576;2022-08-25T15:36:43;1.83;;;1.73;;
17614;SDS011;8926;49.720;6.576;2022-08-25T15:39:08;1.37;;;1.37;;
17614;SDS011;8926;49.720;6.576;2022-08-25T15:41:34;1.50;;;1.47;;
17614;SDS011;8926;49.720;6.576;2022-08-25T15:44:00;1.33;;;1.10;;
17614;SDS011;8926;49.720;6.576;2022-08-25T15:46:26;1.37;;;1.30;;
17614;SDS011;8926;49.720;6.576;2022-08-25T15:48:54;1.23;;;1.23;;
17614;SDS011;8926;49.720;6.576;2022-08-25T15:51:21;1.00;;;1.00;;
17614;SDS011;8926;49.720;6.576;2022-08-25T15:53:47;1.03;;;1.03;;
17614;SDS011;8926;49.720;6.576;2022-08-25T15:56:12;1.07;;;1.07;;
17614;SDS011;8926;49.720;6.576;2022-08-25T15:58:41;1.30;;;1.20;;
17614;SDS011;8926;49.720;6.576;2022-08-25T16:01:10;1.50;;;1.40;;
17614;SDS011;8926;49.720;6.576;2022-08-25T16:03:38;1.33;;;1.23;;
17614;SDS011;8926;49.720;6.576;2022-08-25T16:06:04;1.40;;;1.30;;
17614;SDS011;8926;49.720;6.576;2022-08-25T16:08:30;1.13;;;1.13;;
17614;SDS011;8926;49.720;6.576;2022-08-25T16:10:55;1.30;;;1.30;;
17614;SDS011;8926;49.720;6.576;2022-08-25T16:13:21;0.90;;;0.90;;
17614;SDS011;8926;49.720;6.576;2022-08-25T16:15:47;0.90;;;0.90;;
17614;SDS011;8926;49.720;6.576;2022-08-25T16:18:13;0.80;;;0.63;;
17614;SDS011;8926;49.720;6.576;2022-08-25T16:20:41;1.20;;;1.10;;
17614;SDS011;8926;49.720;6.576;2022-08-25T16:23:08;1.20;;;1.20;;
17614;SDS011;8926;49.720;6.576;2022-08-25T16:25:37;1.07;;;1.07;;
17614;SDS011;8926;49.720;6.576;2022-08-25T16:28:04;1.40;;;1.30;;
17614;SDS011;8926;49.720;6.576;2022-08-25T16:30:29;1.37;;;1.30;;
17614;SDS011;8926;49.720;6.576;2022-08-25T16:32:54;1.50;;;1.40;;
17614;SDS011;8926;49.720;6.576;2022-08-25T16:35:20;1.30;;;1.23;;
17614;SDS011;8926;49.720;6.576;2022-08-25T16:37:45;1.00;;;1.00;;
17614;SDS011;8926;49.720;6.576;2022-08-25T16:40:11;0.90;;;0.90;;
17614;SDS011;8926;49.720;6.576;2022-08-25T16:42:37;0.67;;;0.67;;
17614;SDS011;8926;49.720;6.576;2022-08-25T16:45:03;0.87;;;0.87;;
17614;SDS011;8926;49.720;6.576;2022-08-25T16:47:29;0.90;;;0.90;;
17614;SDS011;8926;49.720;6.576;2022-08-25T16:49:54;1.07;;;1.07;;
17614;SDS011;8926;49.720;6.576;2022-08-25T16:52:20;0.80;;;0.80;;
17614;SDS011;8926;49.720;6.576;2022-08-25T16:55:04;0.90;;;0.90;;
17614;SDS011;8926;49.720;6.576;2022-08-25T16:57:40;0.70;;;0.70;;
17614;SDS011;8926;49.720;6.576;2022-08-25T17:00:09;0.77;;;0.77;;
17614;SDS011;8926;49.720;6.576;2022-08-25T17:02:37;0.90;;;0.90;;
17614;SDS011;8926;49.720;6.576;2022-08-25T17:05:03;0.90;;;0.90;;